createdAt,value
2019-05-28T00:00:42.845Z,19.60
2019-05-28T00:03:11.586Z,19.60
2019-05-28T00:05:40.211Z,19.60
2019-05-28T00:08:08.840Z,19.50
2019-05-28T00:10:37.404Z,19.30
2019-05-28T00:13:06.040Z,19.20
2019-05-28T00:15:34.601Z,19.10
2019-05-28T00:18:03.200Z,19.10
2019-05-28T00:20:31.861Z,19.00
2019-05-28T00:23:00.380Z,19.00
2019-05-28T00:25:29.483Z,19.00
2019-05-28T00:27:58.209Z,18.90
2019-05-28T00:30:26.845Z,18.90
2019-05-28T00:32:55.481Z,18.90
2019-05-28T00:35:24.053Z,18.90
2019-05-28T00:37:52.627Z,18.90
2019-05-28T00:40:21.343Z,18.80
2019-05-28T00:42:50.032Z,18.80
2019-05-28T00:45:20.627Z,18.80
2019-05-28T00:47:49.185Z,18.70
2019-05-28T00:50:18.202Z,18.70
2019-05-28T00:52:46.759Z,18.70
2019-05-28T00:55:15.878Z,18.70
2019-05-28T00:57:46.878Z,18.70
2019-05-28T01:00:16.006Z,18.60
2019-05-28T01:02:44.553Z,18.60
2019-05-28T01:05:13.690Z,18.60
2019-05-28T01:07:42.286Z,18.60
2019-05-28T01:10:11.513Z,18.60
2019-05-28T01:12:40.132Z,18.60
2019-05-28T01:15:09.452Z,18.60
2019-05-28T01:17:38.005Z,18.60
2019-05-28T01:20:10.324Z,18.60
2019-05-28T01:22:38.873Z,18.60
2019-05-28T01:25:07.749Z,18.60
2019-05-28T01:27:36.319Z,18.60
2019-05-28T01:30:09.234Z,18.60
2019-05-28T01:32:37.810Z,18.60
2019-05-28T01:35:27.232Z,18.60
2019-05-28T01:37:55.877Z,18.60
2019-05-28T01:40:24.539Z,18.50
2019-05-28T01:42:53.099Z,18.50
2019-05-28T01:45:22.096Z,18.50
2019-05-28T01:47:50.614Z,18.50
2019-05-28T01:50:19.326Z,18.50
2019-05-28T01:52:47.881Z,18.50
2019-05-28T01:55:16.507Z,18.50
2019-05-28T01:57:44.993Z,18.50
2019-05-28T02:00:14.202Z,18.50
2019-05-28T02:02:42.888Z,18.50
2019-05-28T02:05:12.076Z,18.50
2019-05-28T02:07:40.637Z,18.50
2019-05-28T02:10:09.765Z,18.50
2019-05-28T02:12:38.300Z,18.60
2019-05-28T02:15:10.892Z,18.40
2019-05-28T02:17:39.411Z,18.50
2019-05-28T02:20:09.623Z,18.60
2019-05-28T02:22:38.346Z,18.50
2019-05-28T02:25:08.941Z,18.60
2019-05-28T02:27:37.586Z,18.60
2019-05-28T02:30:09.478Z,18.60
2019-05-28T02:32:38.216Z,18.60
2019-05-28T02:35:07.703Z,18.60
2019-05-28T02:37:36.373Z,18.50
2019-05-28T02:40:08.662Z,18.60
2019-05-28T02:42:37.398Z,18.70
2019-05-28T02:45:08.380Z,18.60
2019-05-28T02:47:36.966Z,18.60
2019-05-28T02:50:09.294Z,18.60
2019-05-28T02:52:39.273Z,18.50
2019-05-28T02:55:09.659Z,18.60
2019-05-28T02:57:39.901Z,18.50
2019-05-28T03:00:13.750Z,18.50
2019-05-28T03:02:45.514Z,18.60
2019-05-28T03:05:14.411Z,18.60
2019-05-28T03:07:46.488Z,18.50
2019-05-28T03:10:17.076Z,18.50
2019-05-28T03:12:45.659Z,18.40
2019-05-28T03:15:14.686Z,18.40
2019-05-28T03:17:44.123Z,18.50
2019-05-28T03:20:12.947Z,18.40
2019-05-28T03:22:44.034Z,18.40
2019-05-28T03:25:12.926Z,18.50
2019-05-28T03:27:41.566Z,18.30
2019-05-28T03:30:11.167Z,18.30
2019-05-28T03:32:39.744Z,18.30
2019-05-28T03:35:08.369Z,18.20
2019-05-28T03:37:37.583Z,18.20
2019-05-28T03:40:10.974Z,18.10
2019-05-28T03:42:39.538Z,18.10
2019-05-28T03:45:08.430Z,18.00
2019-05-28T03:47:37.006Z,17.90
2019-05-28T03:50:09.346Z,17.90
2019-05-28T03:52:37.855Z,17.90
2019-05-28T03:55:07.345Z,17.80
2019-05-28T03:57:35.929Z,17.80
2019-05-28T04:00:05.921Z,17.70
2019-05-28T04:02:34.504Z,17.70
2019-05-28T04:05:03.196Z,17.60
2019-05-28T04:07:31.766Z,17.60
2019-05-28T04:10:00.332Z,17.50
2019-05-28T04:12:28.910Z,17.50
2019-05-28T04:14:57.494Z,17.60
2019-05-28T04:17:26.046Z,17.60
2019-05-28T04:19:54.646Z,17.60
2019-05-28T04:22:23.182Z,17.70
2019-05-28T04:24:51.776Z,17.70
2019-05-28T04:27:20.359Z,17.70
2019-05-28T04:29:48.923Z,17.70
2019-05-28T04:32:17.490Z,17.70
2019-05-28T04:34:46.062Z,17.70
2019-05-28T04:37:14.626Z,17.80
2019-05-28T04:39:43.209Z,17.70
2019-05-28T04:42:11.778Z,17.70
2019-05-28T04:44:40.351Z,17.70
2019-05-28T04:47:09.149Z,17.70
2019-05-28T04:49:37.779Z,17.70
2019-05-28T04:52:06.406Z,17.60
2019-05-28T04:54:34.982Z,17.70
2019-05-28T04:57:03.466Z,17.70
2019-05-28T04:59:32.111Z,17.60
2019-05-28T05:02:00.742Z,17.70
2019-05-28T05:04:29.333Z,17.70
2019-05-28T05:06:57.976Z,17.70
2019-05-28T05:09:26.638Z,17.70
2019-05-28T05:11:55.177Z,17.70
2019-05-28T05:14:23.787Z,17.70
2019-05-28T05:16:52.342Z,17.70
2019-05-28T05:19:20.905Z,17.60
2019-05-28T05:21:49.497Z,17.60
2019-05-28T05:24:18.038Z,17.60
2019-05-28T05:26:46.592Z,17.70
2019-05-28T05:29:15.089Z,17.70
2019-05-28T05:31:43.670Z,17.80
2019-05-28T05:34:12.152Z,17.80
2019-05-28T05:36:40.710Z,17.80
2019-05-28T05:39:09.444Z,17.80
2019-05-28T05:41:38.080Z,17.70
2019-05-28T05:44:06.751Z,17.80
2019-05-28T05:46:35.292Z,17.80
2019-05-28T05:49:03.896Z,17.90
2019-05-28T05:51:32.476Z,17.80
2019-05-28T05:54:01.053Z,17.80
2019-05-28T05:56:29.642Z,17.80
2019-05-28T05:58:58.202Z,17.80
2019-05-28T06:01:26.782Z,17.80
2019-05-28T06:03:55.341Z,17.70
2019-05-28T06:06:23.906Z,17.80
2019-05-28T06:08:52.566Z,17.80
2019-05-28T06:11:21.135Z,17.80
2019-05-28T06:13:49.693Z,17.70
2019-05-28T06:16:18.200Z,17.70
2019-05-28T06:18:46.785Z,17.70
2019-05-28T06:21:18.818Z,17.80
2019-05-28T06:23:45.578Z,17.80
2019-05-28T06:26:14.296Z,17.80
2019-05-28T06:28:42.900Z,17.70
2019-05-28T06:31:11.393Z,17.50
2019-05-28T06:33:55.098Z,17.30
2019-05-28T06:36:10.255Z,17.30
2019-05-28T06:38:38.814Z,17.30
2019-05-28T06:41:07.526Z,17.40
2019-05-28T06:43:36.087Z,17.30
2019-05-28T06:46:04.820Z,17.30
2019-05-28T06:48:33.383Z,17.30
2019-05-28T06:51:01.959Z,17.40
2019-05-28T06:53:30.518Z,17.30
2019-05-28T06:55:59.085Z,17.40
2019-05-28T06:58:38.659Z,17.40
2019-05-28T07:00:58.267Z,17.50
2019-05-28T07:03:26.770Z,17.60
2019-05-28T07:06:06.405Z,17.50
2019-05-28T07:08:25.466Z,17.70
2019-05-28T07:10:57.606Z,17.60
2019-05-28T07:13:24.282Z,17.70
2019-05-28T07:15:52.833Z,17.80
2019-05-28T07:18:21.514Z,17.70
2019-05-28T07:20:50.066Z,17.70
2019-05-28T07:23:18.639Z,17.70
2019-05-28T07:25:47.217Z,17.60
2019-05-28T07:28:15.795Z,17.70
2019-05-28T07:30:46.301Z,17.60
2019-05-28T07:33:14.543Z,17.60
2019-05-28T07:35:46.125Z,17.50
2019-05-28T07:38:13.325Z,17.50
2019-05-28T07:40:41.878Z,17.60
2019-05-28T07:43:10.455Z,17.50
2019-05-28T07:45:39.372Z,17.50
2019-05-28T07:48:08.042Z,17.40
2019-05-28T07:50:36.642Z,17.30
2019-05-28T07:53:05.236Z,17.30
2019-05-28T07:55:33.846Z,17.30
2019-05-28T07:58:02.632Z,17.40
2019-05-28T08:00:40.028Z,17.30
2019-05-28T08:03:09.042Z,17.30
2019-05-28T08:05:37.992Z,17.40
2019-05-28T08:08:09.393Z,17.50
2019-05-28T08:10:38.289Z,17.50
2019-05-28T08:13:07.201Z,17.50
2019-05-28T08:15:36.403Z,17.60
2019-05-28T08:18:05.910Z,17.70
2019-05-28T08:20:35.649Z,17.70
2019-05-28T08:23:04.191Z,17.70
2019-05-28T08:25:45.962Z,17.70
2019-05-28T08:28:18.505Z,17.70
2019-05-28T08:30:33.743Z,17.60
2019-05-28T08:33:02.454Z,17.60
2019-05-28T08:35:31.069Z,17.70
2019-05-28T08:37:59.719Z,17.60
2019-05-28T08:40:28.334Z,17.70
2019-05-28T08:42:56.911Z,17.70
2019-05-28T08:45:25.462Z,17.70
2019-05-28T08:47:54.030Z,17.70
2019-05-28T08:50:33.616Z,17.70
2019-05-28T08:52:53.082Z,17.60
2019-05-28T08:55:21.688Z,17.60
2019-05-28T08:57:50.329Z,17.70
2019-05-28T09:00:36.610Z,17.70
2019-05-28T09:03:05.670Z,17.70
2019-05-28T09:05:34.301Z,17.70
2019-05-28T09:08:03.018Z,17.70
2019-05-28T09:10:31.732Z,17.80
2019-05-28T09:13:00.500Z,17.70
2019-05-28T09:15:29.236Z,17.80
2019-05-28T09:17:57.782Z,17.80
2019-05-28T09:20:26.418Z,17.80
2019-05-28T09:22:55.227Z,17.80
2019-05-28T09:25:24.084Z,18.00
2019-05-28T09:27:52.648Z,18.00
2019-05-28T09:30:21.745Z,17.90
2019-05-28T09:32:50.371Z,17.80
2019-05-28T09:35:19.056Z,17.80
2019-05-28T09:37:47.682Z,17.70
2019-05-28T09:40:17.492Z,17.70
2019-05-28T09:42:46.062Z,17.80
2019-05-28T09:45:22.390Z,17.90
2019-05-28T09:47:45.385Z,17.90
2019-05-28T09:50:30.116Z,18.00
2019-05-28T09:52:54.577Z,18.00
2019-05-28T09:55:15.638Z,18.00
2019-05-28T09:57:47.889Z,18.20
2019-05-28T10:00:18.726Z,18.20
2019-05-28T10:02:47.444Z,18.30
2019-05-28T10:05:17.138Z,18.50
2019-05-28T10:07:45.703Z,18.50
2019-05-28T10:10:14.524Z,18.70
2019-05-28T10:12:43.150Z,18.70
2019-05-28T10:15:12.247Z,18.80
2019-05-28T10:17:40.806Z,18.80
2019-05-28T10:20:11.598Z,18.80
2019-05-28T10:22:40.257Z,18.90
2019-05-28T10:25:09.940Z,18.90
2019-05-28T10:27:38.783Z,18.90
2019-05-28T10:30:11.935Z,19.10
2019-05-28T10:32:40.591Z,19.20
2019-05-28T10:35:10.372Z,19.10
2019-05-28T10:37:38.948Z,19.10
2019-05-28T10:40:08.770Z,19.20
2019-05-28T10:42:37.578Z,19.20
2019-05-28T10:45:08.462Z,19.20
2019-05-28T10:47:37.045Z,19.20
2019-05-28T10:50:06.970Z,19.10
2019-05-28T10:52:35.594Z,19.10
2019-05-28T10:55:06.407Z,18.90
2019-05-28T10:57:35.105Z,18.90
2019-05-28T11:00:05.464Z,18.80
2019-05-28T11:02:34.102Z,18.80
2019-05-28T11:05:02.764Z,18.80
2019-05-28T11:07:31.367Z,18.80
2019-05-28T11:09:59.975Z,18.80
2019-05-28T11:12:28.565Z,18.70
2019-05-28T11:14:57.088Z,18.80
2019-05-28T11:17:25.690Z,18.70
2019-05-28T11:19:54.232Z,18.70
2019-05-28T11:22:22.802Z,18.70
2019-05-28T11:24:51.449Z,18.80
2019-05-28T11:27:23.329Z,18.80
2019-05-28T11:29:50.317Z,18.70
2019-05-28T11:32:18.873Z,18.80
2019-05-28T11:34:47.445Z,18.80
2019-05-28T11:37:16.070Z,18.80
2019-05-28T11:39:44.661Z,18.80
2019-05-28T11:42:13.226Z,18.90
2019-05-28T11:44:41.791Z,18.90
2019-05-28T11:47:10.384Z,18.90
2019-05-28T11:49:38.970Z,19.00
2019-05-28T11:52:07.533Z,19.00
2019-05-28T11:54:36.086Z,19.20
2019-05-28T11:57:04.912Z,19.20
2019-05-28T11:59:33.411Z,19.30
2019-05-28T12:02:05.011Z,19.20
2019-05-28T12:04:32.311Z,19.20
2019-05-28T12:07:00.888Z,19.20
2019-05-28T12:09:29.442Z,19.10
2019-05-28T12:11:58.029Z,19.20
2019-05-28T12:14:26.605Z,19.20
2019-05-28T12:16:55.193Z,19.20
2019-05-28T12:19:23.899Z,19.30
2019-05-28T12:21:52.532Z,19.30
2019-05-28T12:24:21.513Z,19.40
2019-05-28T12:26:50.335Z,19.50
2019-05-28T12:29:18.944Z,19.50
2019-05-28T12:31:47.523Z,19.50
2019-05-28T12:34:16.107Z,19.60
2019-05-28T12:36:44.653Z,19.60
2019-05-28T12:39:13.256Z,19.80
2019-05-28T12:41:41.827Z,19.80
2019-05-28T12:44:10.428Z,19.90
2019-05-28T12:46:39.039Z,19.90
2019-05-28T12:49:07.574Z,19.70
2019-05-28T12:51:36.136Z,19.60
2019-05-28T12:54:04.964Z,19.60
2019-05-28T12:56:33.528Z,19.50
2019-05-28T12:59:02.099Z,19.60
2019-05-28T13:01:30.649Z,19.60
2019-05-28T13:03:59.226Z,19.60
2019-05-28T13:06:27.823Z,19.60
2019-05-28T13:08:56.416Z,19.40
2019-05-28T13:11:25.044Z,19.50
2019-05-28T13:13:53.703Z,19.40
2019-05-28T13:16:22.259Z,19.50
2019-05-28T13:18:50.852Z,19.50
2019-05-28T13:21:21.311Z,19.60
2019-05-28T13:23:49.941Z,19.60
2019-05-28T13:26:18.503Z,19.30
2019-05-28T13:28:47.062Z,19.30
2019-05-28T13:31:15.610Z,19.30
2019-05-28T13:33:44.187Z,19.40
2019-05-28T13:36:12.756Z,19.50
2019-05-28T13:38:42.843Z,19.50
2019-05-28T13:41:11.862Z,19.60
2019-05-28T13:43:40.468Z,19.30
2019-05-28T13:46:09.117Z,19.30
2019-05-28T13:48:37.685Z,19.20
2019-05-28T13:51:06.250Z,19.30
2019-05-28T13:53:34.840Z,19.40
2019-05-28T13:56:03.456Z,19.60
2019-05-28T13:58:32.015Z,19.70
2019-05-28T14:01:00.584Z,19.90
2019-05-28T14:03:29.173Z,19.90
2019-05-28T14:05:57.727Z,19.90
2019-05-28T14:08:44.232Z,19.90
2019-05-28T14:10:56.530Z,19.70
2019-05-28T14:13:25.104Z,19.80
2019-05-28T14:15:53.646Z,19.80
2019-05-28T14:18:22.222Z,19.70
2019-05-28T14:20:50.778Z,19.70
2019-05-28T14:23:19.315Z,19.60
2019-05-28T14:25:47.885Z,19.60
2019-05-28T14:28:16.446Z,19.60
2019-05-28T14:30:59.279Z,19.60
2019-05-28T14:33:15.271Z,19.60
2019-05-28T14:35:43.925Z,19.50
2019-05-28T14:38:12.552Z,19.60
2019-05-28T14:40:41.222Z,19.70
2019-05-28T14:43:09.795Z,19.70
2019-05-28T14:45:38.432Z,19.60
2019-05-28T14:48:07.013Z,19.50
2019-05-28T14:50:35.586Z,19.50
2019-05-28T14:53:04.409Z,19.40
2019-05-28T14:55:32.983Z,19.50
2019-05-28T14:58:05.340Z,19.50
2019-05-28T15:00:31.782Z,19.50
2019-05-28T15:03:00.430Z,19.40
2019-05-28T15:05:28.975Z,19.40
2019-05-28T15:07:57.614Z,19.40
2019-05-28T15:10:26.317Z,19.40
2019-05-28T15:12:54.898Z,19.40
2019-05-28T15:15:35.267Z,19.40
2019-05-28T15:17:53.825Z,19.40
2019-05-28T15:20:22.838Z,19.40
2019-05-28T15:22:51.446Z,19.40
2019-05-28T15:25:20.174Z,19.50
2019-05-28T15:27:48.774Z,19.60
2019-05-28T15:30:17.969Z,19.60
2019-05-28T15:32:46.527Z,19.70
2019-05-28T15:35:15.683Z,19.70
2019-05-28T15:37:44.628Z,19.70
2019-05-28T15:40:13.944Z,19.70
2019-05-28T15:42:42.501Z,19.60
2019-05-28T15:45:12.422Z,19.70
2019-05-28T15:47:44.465Z,19.60
2019-05-28T15:50:12.816Z,19.40
2019-05-28T15:52:41.362Z,19.50
2019-05-28T15:55:10.700Z,19.50
2019-05-28T15:57:39.495Z,19.40
2019-05-28T16:00:22.375Z,19.30
2019-05-28T16:02:51.921Z,18.90
2019-05-28T16:05:20.772Z,18.80
2019-05-28T16:07:49.442Z,18.70
2019-05-28T16:10:18.548Z,18.60
2019-05-28T16:12:47.109Z,18.70
2019-05-28T16:15:17.793Z,18.70
2019-05-28T16:17:46.371Z,18.60
2019-05-28T16:20:15.664Z,18.60
2019-05-28T16:22:44.230Z,18.40
2019-05-28T16:25:13.386Z,18.30
2019-05-28T16:27:41.954Z,18.30
2019-05-28T16:30:15.165Z,18.40
2019-05-28T16:32:44.168Z,18.40
2019-05-28T16:35:13.331Z,18.40
2019-05-28T16:37:41.838Z,18.30
2019-05-28T16:40:15.655Z,18.30
2019-05-28T16:42:41.086Z,18.40
2019-05-28T16:45:10.556Z,18.40
2019-05-28T16:47:39.133Z,18.40
2019-05-28T16:50:08.712Z,18.40
2019-05-28T16:52:37.277Z,18.40
2019-05-28T16:55:06.613Z,18.30
2019-05-28T16:57:35.262Z,18.30
2019-05-28T17:00:07.526Z,18.30
2019-05-28T17:02:36.172Z,18.00
2019-05-28T17:05:07.041Z,17.80
2019-05-28T17:07:36.386Z,17.90
2019-05-28T17:10:06.921Z,17.90
2019-05-28T17:12:35.821Z,18.00
2019-05-28T17:15:06.599Z,17.90
2019-05-28T17:17:35.231Z,18.00
2019-05-28T17:20:06.966Z,18.00
2019-05-28T17:22:35.674Z,18.00
2019-05-28T17:25:11.113Z,18.00
2019-05-28T17:27:38.595Z,18.10
2019-05-28T17:30:17.871Z,18.00
2019-05-28T17:32:39.690Z,18.00
2019-05-28T17:35:08.994Z,18.10
2019-05-28T17:37:37.564Z,18.00
2019-05-28T17:40:06.759Z,18.00
2019-05-28T17:42:35.677Z,18.00
2019-05-28T17:45:05.717Z,18.10
2019-05-28T17:47:42.674Z,18.10
2019-05-28T17:50:06.284Z,18.00
2019-05-28T17:52:34.859Z,18.00
2019-05-28T17:55:04.658Z,18.00
2019-05-28T17:57:33.235Z,18.00
2019-05-28T18:00:02.636Z,18.00
2019-05-28T18:02:31.193Z,18.00
2019-05-28T18:04:59.858Z,17.90
2019-05-28T18:07:28.433Z,17.90
2019-05-28T18:09:57.012Z,17.90
2019-05-28T18:12:25.665Z,17.80
2019-05-28T18:14:54.221Z,17.80
2019-05-28T18:17:22.778Z,17.80
2019-05-28T18:19:51.348Z,17.70
2019-05-28T18:22:19.983Z,17.70
2019-05-28T18:24:48.571Z,17.70
2019-05-28T18:27:17.124Z,17.70
2019-05-28T18:29:45.719Z,17.60
2019-05-28T18:32:14.261Z,17.70
2019-05-28T18:34:42.831Z,17.70
2019-05-28T18:37:11.405Z,17.80
2019-05-28T18:39:39.969Z,17.70
2019-05-28T18:42:08.602Z,17.70
2019-05-28T18:44:37.233Z,17.70
2019-05-28T18:47:05.837Z,17.80
2019-05-28T18:49:34.517Z,17.70
2019-05-28T18:52:03.210Z,17.70
2019-05-28T18:54:51.153Z,17.80
2019-05-28T18:57:19.873Z,17.70
2019-05-28T18:59:48.587Z,17.70
2019-05-28T19:02:17.155Z,17.70
2019-05-28T19:04:45.796Z,17.70
2019-05-28T19:07:14.426Z,17.70
2019-05-28T19:09:43.032Z,17.70
2019-05-28T19:12:11.597Z,17.70
2019-05-28T19:14:40.346Z,17.60
2019-05-28T19:17:09.426Z,17.70
2019-05-28T19:19:38.070Z,17.70
2019-05-28T19:22:06.633Z,17.60
2019-05-28T19:24:35.339Z,17.60
2019-05-28T19:27:04.149Z,17.60
2019-05-28T19:29:32.722Z,17.50
2019-05-28T19:32:01.291Z,17.60
2019-05-28T19:34:30.144Z,17.50
2019-05-28T19:36:59.479Z,17.50
2019-05-28T19:39:28.227Z,17.60
2019-05-28T19:41:56.782Z,17.60
2019-05-28T19:44:25.379Z,17.40
2019-05-28T19:46:53.966Z,17.50
2019-05-28T19:49:22.624Z,17.50
2019-05-28T19:51:51.179Z,17.50
2019-05-28T19:54:19.788Z,17.50
2019-05-28T19:56:50.144Z,17.50
2019-05-28T19:59:18.697Z,17.50
2019-05-28T20:01:47.298Z,17.50
2019-05-28T20:04:15.903Z,17.40
2019-05-28T20:06:44.487Z,17.40
2019-05-28T20:09:13.549Z,17.40
2019-05-28T20:11:42.132Z,17.40
2019-05-28T20:14:10.737Z,17.40
2019-05-28T20:16:39.316Z,17.30
2019-05-28T20:19:07.885Z,17.40
2019-05-28T20:21:36.486Z,17.40
2019-05-28T20:24:05.307Z,17.40
2019-05-28T20:26:33.900Z,17.30
2019-05-28T20:29:08.229Z,17.30
2019-05-28T20:31:32.751Z,17.30
2019-05-28T20:34:01.325Z,17.30
2019-05-28T20:36:29.906Z,17.30
2019-05-28T20:38:59.536Z,17.30
2019-05-28T20:41:28.231Z,17.20
2019-05-28T20:43:56.808Z,17.20
2019-05-28T20:46:25.401Z,17.20
2019-05-28T20:48:54.060Z,17.20
2019-05-28T20:51:22.732Z,17.20
2019-05-28T20:53:51.341Z,17.10
2019-05-28T20:56:19.885Z,17.20
2019-05-28T20:58:49.500Z,17.20
2019-05-28T21:01:18.225Z,17.10
2019-05-28T21:03:47.839Z,17.10
2019-05-28T21:06:16.552Z,17.10
2019-05-28T21:08:45.168Z,17.10
2019-05-28T21:11:13.738Z,17.00
2019-05-28T21:13:42.472Z,17.00
2019-05-28T21:16:11.039Z,17.10
2019-05-28T21:18:39.625Z,17.10
2019-05-28T21:21:08.195Z,17.00
2019-05-28T21:23:36.758Z,17.00
2019-05-28T21:26:05.386Z,16.90
2019-05-28T21:28:33.928Z,17.00
2019-05-28T21:31:02.522Z,16.90
2019-05-28T21:33:31.096Z,16.80
2019-05-28T21:35:59.687Z,16.80
2019-05-28T21:38:28.503Z,16.80
2019-05-28T21:40:57.696Z,16.80
2019-05-28T21:43:26.375Z,16.70
2019-05-28T21:45:55.943Z,16.60
2019-05-28T21:48:24.509Z,16.60
2019-05-28T21:50:53.015Z,16.60
2019-05-28T21:53:21.574Z,16.60
2019-05-28T21:55:50.161Z,16.60
2019-05-28T21:58:18.724Z,16.50
2019-05-28T22:01:02.594Z,16.40
2019-05-28T22:03:31.151Z,16.40
2019-05-28T22:05:59.734Z,16.30
2019-05-28T22:08:28.390Z,16.30
2019-05-28T22:10:57.695Z,16.30
2019-05-28T22:13:26.317Z,16.30
2019-05-28T22:15:55.951Z,16.30
2019-05-28T22:18:24.693Z,16.20
2019-05-28T22:20:53.257Z,16.20
2019-05-28T22:23:21.843Z,16.10
2019-05-28T22:25:50.410Z,16.10
2019-05-28T22:28:18.992Z,16.20
2019-05-28T22:30:47.803Z,16.10
2019-05-28T22:33:16.513Z,16.10
2019-05-28T22:35:45.138Z,16.10
2019-05-28T22:38:13.742Z,16.20
2019-05-28T22:40:42.402Z,16.30
2019-05-28T22:43:10.984Z,16.30
2019-05-28T22:45:43.059Z,16.20
2019-05-28T22:48:15.684Z,16.30
2019-05-28T22:50:40.076Z,16.20
2019-05-28T22:53:08.659Z,16.30
2019-05-28T22:55:37.287Z,16.30
2019-05-28T22:58:06.485Z,16.20
2019-05-28T23:00:35.963Z,16.20
2019-05-28T23:03:05.031Z,16.20
2019-05-28T23:05:33.693Z,16.20
2019-05-28T23:08:03.678Z,16.10
2019-05-28T23:10:32.531Z,16.10
2019-05-28T23:13:01.104Z,16.10
2019-05-28T23:15:29.908Z,16.20
2019-05-28T23:17:58.531Z,16.10
2019-05-28T23:20:27.097Z,16.10
2019-05-28T23:22:55.996Z,16.10
2019-05-28T23:25:24.576Z,16.10
2019-05-28T23:27:53.135Z,16.00
2019-05-28T23:30:25.299Z,16.10
2019-05-28T23:32:52.089Z,16.10
2019-05-28T23:35:20.668Z,16.00
2019-05-28T23:37:49.231Z,16.00
2019-05-28T23:40:18.247Z,16.00
2019-05-28T23:42:46.831Z,16.00
2019-05-28T23:45:15.446Z,16.00
2019-05-28T23:47:44.003Z,15.90
2019-05-28T23:50:15.944Z,15.80
2019-05-28T23:52:43.149Z,15.70
2019-05-28T23:55:11.892Z,15.70
2019-05-28T23:57:40.469Z,15.70
